Time;durP1;ratioP1;P1;durP2;ratioP2;P2;SDS_P1;SDS_P2;PMS_P1;PMS_P2;Temp;Humidity;BMP_temperature;BMP_pressure;BME280_temperature;BME280_humidity;BME280_pressure;Samples;Min_cycle;Max_cycle;Signal;HPM_P1;HPM_P2
2023/01/03 00:00:54;;;;;;;1.10;0.50;;;;;;;6.32;96.97;98355.09;5027912;28;20489;-62
2023/01/03 00:03:20;;;;;;;2.35;0.70;;;;;;;6.31;98.87;98361.50;5044352;28;20049;-62
2023/01/03 00:05:47;;;;;;;1.30;0.70;;;;;;;5.91;98.42;98363.94;5044982;28;20463;-64
2023/01/03 00:08:14;;;;;;;2.28;0.73;;;;;;;5.69;100.00;98367.53;5029948;28;20450;-62
2023/01/03 00:10:41;;;;;;;1.75;0.95;;;;;;;5.63;100.00;98356.72;5028217;28;20037;-64
2023/01/03 00:13:08;;;;;;;1.13;0.70;;;;;;;5.63;100.00;98359.41;5048115;28;20048;-63
2023/01/03 00:15:37;;;;;;;2.08;0.90;;;;;;;5.69;100.00;98361.31;5048355;28;20041;-63
2023/01/03 00:18:04;;;;;;;3.00;0.70;;;;;;;5.58;100.00;98368.91;5049105;28;20600;-63
2023/01/03 00:20:33;;;;;;;2.22;0.90;;;;;;;5.37;100.00;98360.84;5030386;28;20420;-63
2023/01/03 00:23:00;;;;;;;3.72;0.77;;;;;;;5.44;100.00;98367.94;5037022;28;20456;-63
2023/01/03 00:25:28;;;;;;;1.48;0.85;;;;;;;5.44;100.00;98373.31;5047999;28;20041;-64
2023/01/03 00:27:55;;;;;;;3.03;0.85;;;;;;;5.40;100.00;98380.09;5047846;28;20120;-63
2023/01/03 00:30:22;;;;;;;2.25;0.82;;;;;;;5.52;100.00;98374.19;5046451;28;20056;-64
2023/01/03 00:32:49;;;;;;;1.20;0.82;;;;;;;5.26;100.00;98371.09;5047717;28;20037;-64
2023/01/03 00:35:15;;;;;;;1.67;0.80;;;;;;;5.24;100.00;98378.53;5047435;28;20041;-63
2023/01/03 00:37:42;;;;;;;2.08;0.82;;;;;;;5.30;100.00;98377.75;5030211;28;20107;-63
2023/01/03 00:40:09;;;;;;;1.80;0.93;;;;;;;5.34;100.00;98368.28;5032245;28;20045;-64
2023/01/03 00:43:27;;;;;;;1.58;0.77;;;;;;;5.34;100.00;98368.28;5031048;28;20053;-63
2023/01/03 00:45:22;;;;;;;3.55;0.98;;;;;;;5.34;100.00;98372.81;5036754;28;20037;-64
2023/01/03 00:47:51;;;;;;;3.65;0.82;;;;;;;5.45;100.00;98374.97;5038751;28;20081;-63
2023/01/03 00:50:18;;;;;;;3.08;0.93;;;;;;;5.38;100.00;98371.38;5045141;28;20512;-63
2023/01/03 00:52:44;;;;;;;3.08;0.98;;;;;;;5.44;100.00;98369.78;5030475;28;20073;-64
2023/01/03 00:55:11;;;;;;;2.28;1.00;;;;;;;5.54;100.00;98366.78;5037206;28;20049;-64
2023/01/03 00:57:37;;;;;;;2.15;1.02;;;;;;;5.62;100.00;98373.84;5046069;28;20447;-63
2023/01/03 01:00:04;;;;;;;2.22;0.73;;;;;;;5.76;100.00;98364.03;5047972;28;20048;-63
2023/01/03 01:02:31;;;;;;;1.92;0.70;;;;;;;5.95;100.00;98366.03;5046215;28;20068;-64
2023/01/03 01:04:58;;;;;;;3.40;0.80;;;;;;;5.83;100.00;98367.63;5046508;28;20098;-64
2023/01/03 01:07:24;;;;;;;2.80;1.08;;;;;;;5.91;100.00;98356.72;5031271;28;20084;-63
2023/01/03 01:09:51;;;;;;;1.90;1.15;;;;;;;5.66;100.00;98367.91;5027977;28;20059;-64
2023/01/03 01:12:18;;;;;;;2.13;0.80;;;;;;;5.39;100.00;98364.19;5045382;28;20032;-64
2023/01/03 01:14:44;;;;;;;0.95;0.68;;;;;;;5.25;100.00;98380.19;5067046;28;20115;-63
2023/01/03 01:17:11;;;;;;;1.35;0.73;;;;;;;5.17;100.00;98383.00;5067011;28;20270;-63
2023/01/03 01:19:42;;;;;;;3.45;0.85;;;;;;;5.23;100.00;98378.72;5056503;28;20045;-63
2023/01/03 01:22:10;;;;;;;3.03;0.98;;;;;;;5.31;100.00;98379.41;5046345;28;20459;-63
2023/01/03 01:24:37;;;;;;;2.22;1.00;;;;;;;5.21;100.00;98384.28;5047106;28;20032;-63
2023/01/03 01:27:04;;;;;;;1.48;0.93;;;;;;;5.14;100.00;98389.56;5046657;28;20044;-63
2023/01/03 01:29:31;;;;;;;3.75;1.13;;;;;;;5.00;100.00;98383.22;5047447;28;20080;-63
2023/01/03 01:31:57;;;;;;;3.22;0.90;;;;;;;4.99;100.00;98386.94;5046441;28;20114;-63
2023/01/03 01:34:24;;;;;;;3.25;1.40;;;;;;;5.00;100.00;98388.59;5044772;28;20329;-63
2023/01/03 01:36:50;;;;;;;2.10;0.90;;;;;;;4.88;100.00;98390.13;5036325;28;20460;-63
2023/01/03 01:39:27;;;;;;;2.20;0.70;;;;;;;4.99;100.00;98386.94;5027277;28;20064;-63
2023/01/03 01:45:11;;;;;;;2.83;1.20;;;;;;;4.85;100.00;98394.03;5025931;28;20195;-63
2023/01/03 01:47:52;;;;;;;0.85;0.60;;;;;;;4.80;100.00;98391.09;5038597;28;20515;-61
2023/01/03 01:50:37;;;;;;;2.67;0.60;;;;;;;4.81;100.00;98407.00;5043862;28;20045;-63
2023/01/03 01:53:11;;;;;;;1.60;0.77;;;;;;;4.84;100.00;98407.63;5041225;28;20042;-62
2023/01/03 01:55:50;;;;;;;2.65;0.90;;;;;;;4.79;100.00;98408.22;5040852;28;20068;-63
2023/01/03 01:58:17;;;;;;;1.23;0.70;;;;;;;4.81;100.00;98401.63;5045891;28;20040;-63
2023/01/03 02:00:44;;;;;;;1.88;0.70;;;;;;;4.88;100.00;98390.13;5045632;28;20037;-61
2023/01/03 02:03:11;;;;;;;1.90;0.77;;;;;;;4.89;100.00;98381.03;5047381;28;20040;-64
2023/01/03 02:05:41;;;;;;;1.92;0.70;;;;;;;4.74;100.00;98389.13;5042425;28;20076;-62
2023/01/03 02:08:08;;;;;;;2.67;0.95;;;;;;;4.79;100.00;98390.25;5027208;28;20497;-63
2023/01/03 02:10:56;;;;;;;2.47;1.02;;;;;;;4.87;100.00;98394.66;5025581;28;20106;-63
2023/01/03 02:13:36;;;;;;;1.88;0.93;;;;;;;4.88;100.00;98400.84;5050887;28;20040;-63
2023/01/03 02:16:17;;;;;;;2.25;0.80;;;;;;;4.92;100.00;98400.31;5046876;28;20802;-62
2023/01/03 02:19:05;;;;;;;3.00;0.90;;;;;;;4.73;100.00;98399.06;5043705;28;20112;-61
2023/01/03 02:21:56;;;;;;;1.80;0.88;;;;;;;4.61;100.00;98396.00;5025807;28;20333;-62
2023/01/03 02:24:47;;;;;;;2.75;0.90;;;;;;;4.51;100.00;98401.69;5038650;28;20040;-62
2023/01/03 02:27:35;;;;;;;1.38;0.70;;;;;;;4.54;100.00;98395.94;5035240;28;20136;-63
2023/01/03 02:30:15;;;;;;;2.47;0.90;;;;;;;4.50;100.00;98397.31;5046819;28;20045;-63
2023/01/03 02:32:49;;;;;;;0.88;0.60;;;;;;;4.31;100.00;98403.28;5045999;28;20484;-62
2023/01/03 02:35:38;;;;;;;4.95;0.90;;;;;;;4.29;100.00;98406.97;5045422;28;20037;-62
2023/01/03 02:38:08;;;;;;;2.40;0.90;;;;;;;4.14;100.00;98400.78;5026400;28;20065;-62
2023/01/03 02:40:42;;;;;;;1.17;0.70;;;;;;;4.13;100.00;98401.81;5025085;28;20049;-63
2023/01/03 02:43:16;;;;;;;3.20;0.98;;;;;;;3.97;100.00;98403.63;5026182;28;20037;-62
2023/01/03 02:46:06;;;;;;;3.33;0.70;;;;;;;3.83;100.00;98405.28;5031070;28;20444;-63
2023/01/03 02:49:11;;;;;;;1.10;0.70;;;;;;;3.69;100.00;98401.56;5046651;28;20048;-63
2023/01/03 02:51:44;;;;;;;3.53;1.30;;;;;;;3.67;100.00;98400.06;5026012;28;20045;-63
2023/01/03 02:54:17;;;;;;;1.25;0.80;;;;;;;3.56;100.00;98414.72;5035343;28;20044;-63
2023/01/03 02:56:51;;;;;;;1.52;0.80;;;;;;;3.43;100.00;98416.16;5039782;28;20273;-61
2023/01/03 02:59:24;;;;;;;3.78;0.85;;;;;;;3.30;100.00;98410.59;5044396;28;20048;-62
2023/01/03 03:01:52;;;;;;;2.50;1.20;;;;;;;3.30;100.00;98416.78;5041573;28;20098;-62
2023/01/03 03:04:20;;;;;;;2.35;1.10;;;;;;;3.28;100.00;98417.97;5028935;28;20041;-62
2023/01/03 03:07:00;;;;;;;3.63;1.20;;;;;;;3.30;100.00;98419.47;5025586;28;20104;-62
2023/01/03 03:09:29;;;;;;;3.90;1.48;;;;;;;3.31;100.00;98428.34;5031995;28;20041;-63
2023/01/03 03:14:48;;;;;;;3.25;1.10;;;;;;;3.46;100.00;98420.38;5043316;28;20129;-63
2023/01/03 03:17:19;;;;;;;2.00;1.05;;;;;;;3.53;100.00;98423.16;5046007;28;20049;-62
2023/01/03 03:25:55;;;;;;;1.85;0.93;;;;;;;3.34;100.00;98417.25;5036745;28;20095;-62
2023/01/03 03:28:36;;;;;;;2.20;1.13;;;;;;;3.23;100.00;98408.66;5025492;28;20111;-62
2023/01/03 03:31:31;;;;;;;2.55;1.13;;;;;;;3.17;100.00;98413.88;5042104;28;20079;-62
2023/01/03 03:34:31;;;;;;;3.10;1.27;;;;;;;3.18;100.00;98411.03;5045017;28;20044;-63
2023/01/03 03:37:19;;;;;;;2.63;1.20;;;;;;;3.08;100.00;98413.94;5033271;28;20103;-63
2023/01/03 03:46:11;;;;;;;6.40;1.70;;;;;;;2.94;100.00;98415.53;5044578;28;20044;-63
2023/01/03 03:51:30;;;;;;;2.63;1.10;;;;;;;2.83;100.00;98422.09;5042523;28;19929;-63
2023/01/03 03:54:03;;;;;;;2.38;1.30;;;;;;;2.90;100.00;98424.91;5045098;28;20041;-63
2023/01/03 03:56:31;;;;;;;3.63;1.20;;;;;;;2.98;100.00;98424.00;5043984;28;20099;-62
2023/01/03 03:59:04;;;;;;;4.20;1.35;;;;;;;2.92;100.00;98428.25;5045423;28;20072;-61
2023/01/03 04:01:32;;;;;;;3.42;1.38;;;;;;;2.73;100.00;98427.66;5044040;28;20049;-62
2023/01/03 04:04:06;;;;;;;3.03;1.15;;;;;;;2.63;100.00;98419.03;5044594;28;20167;-63
2023/01/03 04:06:41;;;;;;;2.20;1.40;;;;;;;2.66;100.00;98417.84;5037537;28;20050;-62
2023/01/03 04:09:08;;;;;;;1.90;1.20;;;;;;;2.59;100.00;98421.22;5044707;28;20130;-62
2023/01/03 04:11:35;;;;;;;2.20;1.20;;;;;;;2.52;100.00;98419.41;5045689;28;20048;-62
2023/01/03 04:14:01;;;;;;;2.97;1.33;;;;;;;2.48;100.00;98421.63;5045583;28;20041;-61
2023/01/03 04:16:28;;;;;;;;;;;;;;;2.47;100.00;98414.63;5047550;28;20124;-61
2023/01/03 04:18:54;;;;;;;3.90;1.70;;;;;;;2.49;100.00;98409.06;5044206;28;20058;-62
2023/01/03 04:21:21;;;;;;;4.68;1.55;;;;;;;2.53;100.00;98410.38;5042619;28;20373;-62
2023/01/03 04:23:48;;;;;;;4.13;1.63;;;;;;;2.59;100.00;98423.06;5028590;28;20048;-62
2023/01/03 04:26:14;;;;;;;2.67;1.25;;;;;;;2.65;100.00;98426.91;5033471;28;20048;-61
2023/01/03 04:28:41;;;;;;;2.55;1.10;;;;;;;2.72;100.00;98430.50;5048374;28;20087;-62
2023/01/03 04:31:07;;;;;;;2.75;1.50;;;;;;;2.63;100.00;98435.09;5047762;28;20045;-63
2023/01/03 04:33:34;;;;;;;3.90;1.50;;;;;;;2.57;100.00;98428.59;5046713;28;20052;-62
2023/01/03 04:36:00;;;;;;;2.60;1.38;;;;;;;2.50;100.00;98435.63;5041740;28;20153;-62
2023/01/03 04:38:27;;;;;;;4.22;1.30;;;;;;;2.40;100.00;98433.16;5028381;28;20038;-63
2023/01/03 04:40:53;;;;;;;4.70;1.60;;;;;;;2.32;100.00;98438.56;5029273;28;20064;-62
2023/01/03 04:46:05;;;;;;;3.80;1.70;;;;;;;2.38;100.00;98442.34;5047809;28;20040;-63
2023/01/03 04:48:32;;;;;;;5.35;1.92;;;;;;;2.43;100.00;98448.03;5048507;28;20047;-59
2023/01/03 04:50:58;;;;;;;3.35;1.50;;;;;;;2.50;100.00;98453.53;5046734;28;20120;-59
2023/01/03 04:53:26;;;;;;;5.28;2.80;;;;;;;2.68;100.00;98451.44;5041981;28;20038;-59
2023/01/03 04:55:55;;;;;;;5.82;2.70;;;;;;;2.52;100.00;98446.16;5027013;28;20049;-58
2023/01/03 04:58:23;;;;;;;6.00;2.42;;;;;;;2.55;100.00;98451.16;5028393;28;20054;-59
2023/01/03 05:00:49;;;;;;;8.77;2.70;;;;;;;2.40;100.00;98446.53;5027034;28;20060;-58
2023/01/03 05:03:16;;;;;;;6.60;2.75;;;;;;;2.36;100.00;98445.19;5037182;28;20059;-59
2023/01/03 05:05:51;;;;;;;8.70;2.42;;;;;;;2.44;100.00;98447.84;5047077;28;20056;-59
2023/01/03 05:08:17;;;;;;;4.80;2.10;;;;;;;2.58;100.00;98450.81;5047906;28;20052;-59
2023/01/03 05:10:44;;;;;;;4.00;1.95;;;;;;;2.78;100.00;98448.56;5045925;28;20547;-59
2023/01/03 05:13:10;;;;;;;5.40;2.33;;;;;;;2.63;100.00;98447.63;5046465;28;20536;-58
2023/01/03 05:15:38;;;;;;;4.25;2.20;;;;;;;2.45;100.00;98444.19;5046966;28;20102;-59
2023/01/03 05:18:05;;;;;;;4.50;2.60;;;;;;;2.41;100.00;98436.69;5046787;28;20131;-59
2023/01/03 05:26:10;;;;;;;4.63;2.10;;;;;;;2.12;100.00;98441.59;5038278;28;20107;-56
2023/01/03 05:28:38;;;;;;;4.32;1.92;;;;;;;1.94;100.00;98450.66;5035512;28;20120;-59
2023/01/03 05:31:05;;;;;;;3.83;2.10;;;;;;;1.87;100.00;98452.34;5044233;28;20128;-59
2023/01/03 05:33:32;;;;;;;4.85;1.92;;;;;;;1.89;100.00;98444.16;5037010;28;20042;-57
2023/01/03 05:35:58;;;;;;;4.20;1.90;;;;;;;1.99;100.00;98446.66;5027211;28;20172;-57
2023/01/03 05:38:25;;;;;;;3.33;1.83;;;;;;;1.88;100.00;98448.66;5034880;28;20572;-59
2023/01/03 05:40:51;;;;;;;3.20;1.80;;;;;;;1.88;100.00;98458.53;5046181;28;20135;-59
2023/01/03 05:43:18;;;;;;;3.83;2.00;;;;;;;2.04;100.00;98463.00;5047728;28;20440;-59
2023/01/03 05:45:49;;;;;;;4.50;2.40;;;;;;;2.20;100.00;98468.31;5046279;28;20107;-59
2023/01/03 05:48:17;;;;;;;5.22;2.55;;;;;;;2.31;100.00;98463.59;5047423;28;20056;-58
2023/01/03 05:50:45;;;;;;;5.10;2.38;;;;;;;2.37;100.00;98468.28;5025636;28;20104;-56
2023/01/03 05:53:11;;;;;;;6.53;2.20;;;;;;;2.50;100.00;98469.56;5026234;28;20238;-58
2023/01/03 05:55:38;;;;;;;5.68;2.42;;;;;;;2.47;100.00;98470.75;5025536;28;20540;-59
2023/01/03 05:58:06;;;;;;;5.65;2.50;;;;;;;2.50;100.00;98461.56;5027472;28;20048;-58
2023/01/03 06:00:33;;;;;;;5.00;1.95;;;;;;;2.57;100.00;98459.84;5030436;28;20490;-59
2023/01/03 06:03:00;;;;;;;3.55;1.90;;;;;;;2.62;100.00;98462.00;5046972;28;20091;-59
2023/01/03 06:05:26;;;;;;;4.85;2.65;;;;;;;2.56;100.00;98466.19;5046031;28;20735;-59
2023/01/03 06:07:53;;;;;;;7.78;2.63;;;;;;;2.51;100.00;98460.53;5046246;28;20419;-57
2023/01/03 06:10:19;;;;;;;4.10;2.08;;;;;;;2.53;100.00;98470.03;5031263;28;20049;-58
2023/01/03 06:12:46;;;;;;;3.88;2.38;;;;;;;2.62;100.00;98483.38;5040755;28;20040;-59
2023/01/03 06:15:12;;;;;;;6.75;2.90;;;;;;;2.68;100.00;98478.19;5045805;28;20072;-56
2023/01/03 06:17:54;;;;;;;3.80;2.47;;;;;;;2.65;100.00;98477.69;5046983;28;20045;-58
2023/01/03 06:20:20;;;;;;;5.85;2.30;;;;;;;2.70;100.00;98465.44;5030185;28;20045;-59
2023/01/03 06:22:47;;;;;;;8.63;3.00;;;;;;;2.88;100.00;98474.25;5032985;28;20409;-59
2023/01/03 06:25:14;;;;;;;5.32;3.00;;;;;;;2.84;100.00;98482.63;5023376;28;20048;-58
2023/01/03 06:27:40;;;;;;;6.07;2.60;;;;;;;2.75;100.00;98477.47;5023605;28;20045;-58
2023/01/03 06:30:09;;;;;;;6.93;3.03;;;;;;;2.74;100.00;98484.69;5027272;28;20140;-58
2023/01/03 06:32:35;;;;;;;8.52;3.30;;;;;;;2.70;100.00;98478.81;5033358;28;20516;-58
2023/01/03 06:35:03;;;;;;;6.57;3.33;;;;;;;2.66;100.00;98487.38;5032398;28;20053;-58
2023/01/03 06:37:29;;;;;;;5.85;3.40;;;;;;;2.75;100.00;98485.50;5044376;28;20381;-59
2023/01/03 06:39:56;;;;;;;8.02;3.42;;;;;;;2.81;100.00;98487.50;5044000;28;20040;-59
2023/01/03 06:53:36;;;;;;;11.95;5.35;;;;;;;3.01;100.00;98495.91;5036251;28;20056;-58
2023/01/03 06:56:04;;;;;;;7.68;3.60;;;;;;;3.11;100.00;98490.34;5042197;28;20116;-58
2023/01/03 06:58:30;;;;;;;6.65;3.35;;;;;;;3.23;100.00;98499.66;5031837;28;20048;-58
2023/01/03 07:01:02;;;;;;;7.30;3.20;;;;;;;3.29;100.00;98502.63;5031731;28;20542;-55
2023/01/03 07:03:29;;;;;;;;;;;;;;;3.28;100.00;98501.78;5033127;28;20048;-57
2023/01/03 07:05:56;;;;;;;5.18;2.72;;;;;;;3.32;100.00;98510.31;5051122;28;19924;-59
2023/01/03 07:08:22;;;;;;;5.60;2.47;;;;;;;3.43;100.00;98503.72;5056031;28;20099;-59
2023/01/03 07:10:49;;;;;;;6.20;2.80;;;;;;;3.48;100.00;98504.00;5041028;28;20556;-59
2023/01/03 07:16:00;;;;;;;5.57;2.45;;;;;;;3.45;100.00;98505.19;5032567;28;20049;-58
2023/01/03 07:18:27;;;;;;;3.88;2.45;;;;;;;3.45;100.00;98509.72;5043667;28;20120;-59
2023/01/03 07:20:53;;;;;;;5.72;2.67;;;;;;;3.37;100.00;98513.28;5041321;28;20051;-59
2023/01/03 07:23:20;;;;;;;4.78;2.65;;;;;;;3.25;100.00;98502.97;5040924;28;20128;-57
2023/01/03 07:25:47;;;;;;;4.97;2.42;;;;;;;3.30;100.00;98517.66;5022948;28;20315;-59
2023/01/03 07:28:14;;;;;;;5.20;2.50;;;;;;;3.06;100.00;98522.16;5022035;28;20056;-57
2023/01/03 07:30:43;;;;;;;5.93;2.40;;;;;;;3.02;100.00;98528.88;5022438;28;20064;-58
2023/01/03 07:33:12;;;;;;;4.00;2.33;;;;;;;3.07;100.00;98526.50;5032902;28;20052;-58
2023/01/03 07:35:39;;;;;;;6.68;2.60;;;;;;;3.12;100.00;98521.44;5024487;28;20119;-58
2023/01/03 07:38:06;;;;;;;4.30;2.40;;;;;;;3.15;100.00;98520.25;5036063;28;20459;-56
2023/01/03 07:40:33;;;;;;;5.85;2.60;;;;;;;3.25;100.00;98526.25;5036456;28;20099;-59
2023/01/03 07:45:45;;;;;;;4.68;2.55;;;;;;;3.36;100.00;98533.03;5037412;28;20049;-60
2023/01/03 07:48:13;;;;;;;7.70;2.40;;;;;;;3.26;100.00;98533.25;5045634;28;20102;-59
2023/01/03 07:50:40;;;;;;;4.40;2.20;;;;;;;3.22;100.00;98539.97;5039935;28;20048;-59
2023/01/03 07:53:07;;;;;;;4.30;2.15;;;;;;;3.29;100.00;98540.09;5035791;28;20132;-59
2023/01/03 07:55:36;;;;;;;5.55;2.10;;;;;;;3.32;100.00;98535.22;5062592;28;20461;-59
2023/01/03 07:58:03;;;;;;;4.95;2.17;;;;;;;3.33;100.00;98536.91;5048897;28;20037;-58
2023/01/03 08:00:29;;;;;;;6.75;1.80;;;;;;;3.36;100.00;98533.03;5038306;28;20466;-58
2023/01/03 08:02:56;;;;;;;5.97;2.55;;;;;;;3.33;100.00;98541.41;5027706;28;20037;-58
2023/01/03 08:05:23;;;;;;;4.95;2.70;;;;;;;3.38;100.00;98545.25;5029750;28;20048;-58
2023/01/03 08:07:51;;;;;;;6.30;2.83;;;;;;;3.41;100.00;98544.06;5052746;28;20052;-57
2023/01/03 08:13:17;;;;;;;5.65;2.65;;;;;;;3.40;100.00;98547.75;5043412;28;20044;-58
2023/01/03 08:15:44;;;;;;;6.47;3.35;;;;;;;3.42;100.00;98548.38;5047881;28;20037;-57
2023/01/03 08:18:12;;;;;;;7.65;3.38;;;;;;;3.55;100.00;98538.94;5041566;28;20472;-56
2023/01/03 08:20:40;;;;;;;8.65;3.80;;;;;;;3.69;100.00;98546.19;5041825;28;20045;-47
2023/01/03 08:23:07;;;;;;;7.72;3.53;;;;;;;3.62;100.00;98543.41;5040284;28;20459;-46
2023/01/03 08:25:34;;;;;;;5.75;3.42;;;;;;;3.63;100.00;98545.09;5041750;28;20191;-49
2023/01/03 08:28:00;;;;;;;8.70;3.85;;;;;;;3.72;100.00;98551.22;5039250;28;20575;-49
2023/01/03 08:30:28;;;;;;;7.63;3.65;;;;;;;3.77;100.00;98551.50;5034968;28;20048;-46
2023/01/03 08:32:57;;;;;;;6.60;3.40;;;;;;;3.73;100.00;98547.50;5039468;28;20498;-48
2023/01/03 08:35:27;;;;;;;10.48;3.85;;;;;;;3.70;100.00;98555.94;5038514;28;20047;-46
2023/01/03 08:37:54;;;;;;;7.18;3.58;;;;;;;3.78;100.00;98555.03;5044515;28;20678;-48
2023/01/03 08:40:21;;;;;;;7.13;3.97;;;;;;;3.92;100.00;98558.78;5045406;28;20528;-49
2023/01/03 08:42:48;;;;;;;8.45;4.80;;;;;;;4.02;100.00;98561.22;5040045;28;20458;-47
2023/01/03 08:45:16;;;;;;;9.23;3.88;;;;;;;4.08;100.00;98559.63;5034082;28;20299;-49
2023/01/03 08:47:45;;;;;;;7.68;3.85;;;;;;;4.18;100.00;98573.66;5039187;28;20512;-53
2023/01/03 08:50:12;;;;;;;7.68;3.38;;;;;;;4.25;100.00;98561.19;5039071;28;20103;-48
2023/01/03 08:52:38;;;;;;;9.73;3.95;;;;;;;4.35;100.00;98571.63;5030788;28;20057;-49
2023/01/03 08:55:05;;;;;;;7.03;3.45;;;;;;;4.47;100.00;98573.88;5039408;28;20040;-46
2023/01/03 08:57:32;;;;;;;6.05;3.22;;;;;;;4.56;100.00;98570.09;5033784;28;20052;-49
2023/01/03 08:59:58;;;;;;;5.80;3.15;;;;;;;4.63;100.00;98575.56;5041778;28;20533;-47
2023/01/03 09:02:25;;;;;;;6.38;3.45;;;;;;;4.67;100.00;98582.22;5032917;28;20099;-49
2023/01/03 09:04:51;;;;;;;5.22;2.45;;;;;;;4.72;100.00;98577.13;5039704;28;20045;-47
2023/01/03 09:07:18;;;;;;;6.03;3.15;;;;;;;4.69;100.00;98582.91;5024883;28;20057;-48
2023/01/03 09:09:44;;;;;;;6.63;2.97;;;;;;;4.66;100.00;98578.72;5030929;28;20090;-50
2023/01/03 09:12:11;;;;;;;5.10;3.13;;;;;;;4.65;100.00;98578.91;5054812;28;20539;-49
2023/01/03 09:14:37;;;;;;;7.00;3.53;;;;;;;4.65;100.00;98584.28;5041167;28;20041;-52
2023/01/03 09:17:04;;;;;;;5.57;3.30;;;;;;;4.62;100.00;98588.16;5041406;28;20052;-51
2023/01/03 09:19:31;;;;;;;6.30;3.20;;;;;;;4.60;100.00;98592.88;5048145;28;20128;-50
2023/01/03 09:21:57;;;;;;;5.70;3.28;;;;;;;4.60;100.00;98592.88;5045854;28;20120;-49
2023/01/03 09:24:24;;;;;;;8.20;3.58;;;;;;;4.63;100.00;98591.66;5047140;28;20048;-53
2023/01/03 09:26:50;;;;;;;9.45;3.72;;;;;;;4.72;100.00;98597.78;5047154;28;20165;-60
2023/01/03 09:29:21;;;;;;;6.70;3.50;;;;;;;4.80;100.00;98603.88;5045597;28;20040;-59
2023/01/03 09:31:47;;;;;;;6.80;3.10;;;;;;;4.85;100.00;98603.34;5037147;28;20060;-60
2023/01/03 09:34:16;;;;;;;7.25;3.13;;;;;;;4.81;100.00;98600.22;5046091;28;20107;-57
2023/01/03 09:36:43;;;;;;;5.82;3.15;;;;;;;4.77;100.00;98606.13;5054837;28;20048;-58
2023/01/03 09:39:09;;;;;;;5.78;2.47;;;;;;;4.75;100.00;98611.66;5037939;28;20069;-58
2023/01/03 09:41:38;;;;;;;4.40;2.22;;;;;;;4.73;100.00;98612.88;5030942;28;20056;-58
2023/01/03 09:44:07;;;;;;;7.80;2.70;;;;;;;4.77;100.00;98606.97;5049271;28;20527;-58
2023/01/03 09:46:34;;;;;;;6.75;2.50;;;;;;;4.79;100.00;98617.50;5043383;28;20037;-56
2023/01/03 09:49:03;;;;;;;6.07;3.15;;;;;;;4.76;100.00;98612.50;5046374;28;20069;-58
2023/01/03 10:03:43;;;;;;;7.32;2.10;;;;;;;4.85;100.00;98610.56;5032815;28;20048;-58
2023/01/03 10:06:29;;;;;;;5.05;2.20;;;;;;;4.81;100.00;98607.41;5046477;28;20116;-58
2023/01/03 10:09:20;;;;;;;4.13;2.15;;;;;;;4.83;100.00;98597.31;5045914;28;20044;-61
2023/01/03 10:12:05;;;;;;;5.03;2.60;;;;;;;4.86;100.00;98598.81;5042087;28;20040;-57
2023/01/03 10:14:43;;;;;;;4.65;2.20;;;;;;;4.84;100.00;98604.38;5040159;28;20037;-57
2023/01/03 10:17:41;;;;;;;3.92;2.08;;;;;;;4.82;100.00;98604.56;5045442;28;20036;-58
2023/01/03 10:20:26;;;;;;;4.78;2.30;;;;;;;4.79;100.00;98606.78;5024122;28;20095;-58
2023/01/03 10:22:59;;;;;;;4.80;2.30;;;;;;;4.80;100.00;98611.13;5033549;28;20049;-59
2023/01/03 10:25:27;;;;;;;5.80;2.33;;;;;;;4.91;100.00;98610.66;5038018;28;20038;-58
2023/01/03 10:27:59;;;;;;;4.72;2.58;;;;;;;5.03;100.00;98616.41;5035472;28;20083;-58
2023/01/03 10:30:38;;;;;;;4.57;2.58;;;;;;;5.16;100.00;98605.00;5036534;28;20053;-58
2023/01/03 10:33:22;;;;;;;7.25;2.75;;;;;;;5.40;100.00;98610.25;5024413;28;20436;-55
2023/01/03 10:35:50;;;;;;;4.93;2.35;;;;;;;5.55;100.00;98600.31;5029459;28;20076;-58
2023/01/03 10:38:17;;;;;;;5.15;2.25;;;;;;;5.70;100.00;98597.59;5043037;28;20420;-57
2023/01/03 10:40:52;;;;;;;2.63;1.60;;;;;;;5.79;99.61;98605.53;5039706;28;20076;-59
2023/01/03 10:43:25;;;;;;;3.85;1.67;;;;;;;5.90;98.66;98599.66;5040268;28;20057;-57
2023/01/03 10:46:04;;;;;;;2.80;1.67;;;;;;;6.00;98.52;98593.97;5034649;28;20497;-58
2023/01/03 10:49:15;;;;;;;3.13;1.63;;;;;;;6.16;97.46;98589.38;5039570;28;20423;-61
2023/01/03 10:52:03;;;;;;;;;;;;;;;6.29;97.50;98588.66;5029783;28;20809;-62
2023/01/03 10:54:41;;;;;;;2.83;1.17;;;;;;;6.45;96.39;98576.81;5023565;28;20545;-63
2023/01/03 10:57:38;;;;;;;2.20;1.13;;;;;;;6.53;95.79;98576.66;5035327;28;20122;-59
2023/01/03 11:00:34;;;;;;;2.30;1.13;;;;;;;6.65;94.01;98563.47;5020854;28;20051;-59
2023/01/03 11:03:11;;;;;;;3.83;1.10;;;;;;;6.76;93.62;98570.19;5046345;28;20091;-58
2023/01/03 11:05:40;;;;;;;2.40;1.17;;;;;;;6.84;93.27;98564.63;5028878;28;20047;-58
2023/01/03 11:08:20;;;;;;;6.97;1.45;;;;;;;6.95;92.82;98565.09;5031824;28;20636;-61
2023/01/03 11:10:58;;;;;;;3.90;1.25;;;;;;;7.04;91.95;98563.91;5023425;28;20045;-59
2023/01/03 11:13:37;;;;;;;3.33;0.90;;;;;;;7.09;89.89;98563.31;5037944;28;20074;-59
2023/01/03 11:16:18;;;;;;;1.70;0.93;;;;;;;7.22;89.55;98559.88;5034725;28;20121;-59
2023/01/03 11:19:03;;;;;;;3.42;1.00;;;;;;;7.32;87.39;98567.53;5028810;28;20519;-59
2023/01/03 11:22:12;;;;;;;2.00;1.08;;;;;;;7.48;86.84;98563.69;5026908;28;20083;-59
2023/01/03 11:24:38;;;;;;;3.75;1.30;;;;;;;7.52;86.21;98565.75;5046181;28;20076;-59
2023/01/03 11:27:35;;;;;;;2.25;0.82;;;;;;;7.64;82.99;98562.47;5041291;28;20037;-59
2023/01/03 11:30:15;;;;;;;2.92;1.10;;;;;;;7.68;83.03;98563.75;5026822;28;20041;-59
2023/01/03 11:32:42;;;;;;;2.58;1.02;;;;;;;7.85;83.20;98564.19;5028012;28;20068;-59
2023/01/03 11:35:43;;;;;;;5.05;2.10;;;;;;;7.80;82.43;98562.09;5024665;28;20052;-60
2023/01/03 11:38:40;;;;;;;2.50;0.80;;;;;;;7.86;82.00;98563.16;5033238;28;20397;-60
2023/01/03 11:41:52;;;;;;;2.58;0.75;;;;;;;7.90;82.12;98555.47;5030036;28;20049;-59
2023/01/03 11:44:27;;;;;;;2.00;1.15;;;;;;;7.96;78.57;98543.03;5038853;28;20057;-61
2023/01/03 11:47:16;;;;;;;2.47;0.80;;;;;;;7.97;81.08;98544.69;5044584;28;20109;-60
2023/01/03 11:50:00;;;;;;;2.17;0.80;;;;;;;7.99;80.83;98542.66;5034606;28;20049;-61
2023/01/03 11:52:53;;;;;;;2.47;0.50;;;;;;;7.98;76.13;98538.25;5028570;28;20069;-61
2023/01/03 11:55:41;;;;;;;2.05;0.63;;;;;;;8.10;77.53;98539.31;5032918;28;20111;-59
2023/01/03 11:58:46;;;;;;;1.50;0.50;;;;;;;8.15;77.43;98531.41;5023060;28;20052;-59
2023/01/03 12:01:30;;;;;;;2.47;0.70;;;;;;;8.06;77.75;98532.66;5041039;28;20040;-63
2023/01/03 12:04:23;;;;;;;1.83;0.40;;;;;;;8.13;75.32;98530.81;5041032;28;20076;-61
2023/01/03 12:07:08;;;;;;;1.80;0.55;;;;;;;8.12;74.92;98529.16;5024493;28;20064;-61
2023/01/03 12:10:08;;;;;;;2.08;0.50;;;;;;;8.20;75.42;98526.25;5022543;28;20045;-60
2023/01/03 12:12:58;;;;;;;1.38;0.60;;;;;;;8.17;74.49;98529.34;5030563;28;20057;-60
2023/01/03 12:15:30;;;;;;;2.30;0.52;;;;;;;8.18;73.42;98530.16;5021648;28;20053;-60
2023/01/03 12:18:04;;;;;;;2.72;0.60;;;;;;;8.16;73.33;98519.63;5039801;28;20083;-60
2023/01/03 12:20:36;;;;;;;1.63;0.50;;;;;;;8.23;73.23;98527.72;5040294;28;20041;-60
2023/01/03 12:23:14;;;;;;;5.13;0.70;;;;;;;8.27;71.27;98525.41;5022556;28;20127;-60
2023/01/03 12:25:50;;;;;;;1.20;0.52;;;;;;;8.27;70.84;98531.66;5038389;28;20051;-60
2023/01/03 12:28:42;;;;;;;3.85;0.55;;;;;;;8.35;67.85;98532.44;5034586;28;20041;-60
2023/01/03 12:31:34;;;;;;;1.67;0.40;;;;;;;8.46;68.70;98518.34;5025369;28;20060;-60
2023/01/03 12:34:39;;;;;;;2.25;0.60;;;;;;;8.52;68.85;98520.19;5024459;28;20099;-60
2023/01/03 12:37:28;;;;;;;2.30;0.50;;;;;;;8.64;69.00;98523.13;5034050;28;20539;-60
2023/01/03 12:40:33;;;;;;;1.80;1.05;;;;;;;8.80;69.41;98518.28;5034338;28;20470;-60
2023/01/03 12:43:15;;;;;;;1.58;0.40;;;;;;;8.95;68.54;98515.34;5039728;28;20652;-60
2023/01/03 12:45:53;;;;;;;1.95;0.40;;;;;;;8.98;68.57;98496.84;5038528;28;20102;-60
2023/01/03 12:48:44;;;;;;;0.50;0.40;;;;;;;8.99;69.09;98503.06;5045764;28;20041;-60
2023/01/03 12:51:14;;;;;;;1.02;0.75;;;;;;;9.04;68.37;98507.84;5041425;28;20120;-60
2023/01/03 12:53:47;;;;;;;2.63;0.82;;;;;;;9.04;70.41;98510.53;5039036;28;20079;-60
2023/01/03 12:56:25;;;;;;;6.63;0.95;;;;;;;9.14;69.57;98501.97;5038441;28;20489;-61
2023/01/03 12:59:10;;;;;;;1.75;0.50;;;;;;;9.20;68.61;98499.25;5037577;28;20564;-58
2023/01/03 13:01:46;;;;;;;3.40;0.50;;;;;;;9.15;68.66;98504.47;5025873;28;20633;-60
2023/01/03 13:04:21;;;;;;;2.15;0.60;;;;;;;9.20;67.86;98496.53;5037459;28;20049;-61